sensor_id;sensor_type;location;lat;lon;timestamp;pressure;altitude;pressure_sealevel;temperature;humidity
85039;BME280;75366;54.588;18.456;2024-02-23T00:03:38;98140.66;;;7.08;82.85
85039;BME280;75366;54.588;18.456;2024-02-23T00:08:40;98129.81;;;7.07;82.85
85039;BME280;75366;54.588;18.456;2024-02-23T00:13:42;98126.62;;;7.07;82.67
85039;BME280;75366;54.588;18.456;2024-02-23T00:18:44;98118.61;;;7.04;82.61
85039;BME280;75366;54.588;18.456;2024-02-23T00:23:46;98102.77;;;7.03;82.86
85039;BME280;75366;54.588;18.456;2024-02-23T00:28:48;98096.33;;;7.03;82.80
85039;BME280;75366;54.588;18.456;2024-02-23T00:33:49;98083.23;;;7.02;82.86
85039;BME280;75366;54.588;18.456;2024-02-23T00:38:51;98072.81;;;7.01;82.76
85039;BME280;75366;54.588;18.456;2024-02-23T00:43:53;98071.81;;;6.99;82.48
85039;BME280;75366;54.588;18.456;2024-02-23T00:48:54;98079.04;;;6.99;82.66
85039;BME280;75366;54.588;18.456;2024-02-23T00:53:56;98083.41;;;6.98;82.67
85039;BME280;75366;54.588;18.456;2024-02-23T00:58:57;98077.39;;;6.98;82.65
85039;BME280;75366;54.588;18.456;2024-02-23T01:03:59;98069.41;;;6.98;82.51
85039;BME280;75366;54.588;18.456;2024-02-23T01:09:00;98059.52;;;7.00;82.46
85039;BME280;75366;54.588;18.456;2024-02-23T01:14:02;98038.64;;;7.03;82.45
85039;BME280;75366;54.588;18.456;2024-02-23T01:19:04;98036.72;;;7.05;82.29
85039;BME280;75366;54.588;18.456;2024-02-23T01:24:05;98031.17;;;7.05;82.16
85039;BME280;75366;54.588;18.456;2024-02-23T01:29:07;98027.16;;;7.08;82.10
85039;BME280;75366;54.588;18.456;2024-02-23T01:34:09;98025.46;;;7.08;82.08
85039;BME280;75366;54.588;18.456;2024-02-23T01:39:10;98019.83;;;7.08;82.14
85039;BME280;75366;54.588;18.456;2024-02-23T01:44:12;98014.40;;;7.07;82.36
85039;BME280;75366;54.588;18.456;2024-02-23T01:49:14;98005.48;;;7.04;82.26
85039;BME280;75366;54.588;18.456;2024-02-23T01:54:16;98004.11;;;7.04;82.54
85039;BME280;75366;54.588;18.456;2024-02-23T01:59:18;98005.36;;;7.06;82.47
85039;BME280;75366;54.588;18.456;2024-02-23T02:04:20;97994.08;;;7.08;82.38
85039;BME280;75366;54.588;18.456;2024-02-23T02:09:21;98004.40;;;7.08;82.52
85039;BME280;75366;54.588;18.456;2024-02-23T02:14:23;98002.38;;;7.08;82.69
85039;BME280;75366;54.588;18.456;2024-02-23T02:19:25;97997.52;;;7.10;82.84
85039;BME280;75366;54.588;18.456;2024-02-23T02:24:27;97996.98;;;7.12;82.83
85039;BME280;75366;54.588;18.456;2024-02-23T02:29:29;97999.23;;;7.14;83.12
85039;BME280;75366;54.588;18.456;2024-02-23T02:34:31;97998.13;;;7.16;83.38
85039;BME280;75366;54.588;18.456;2024-02-23T02:39:33;97996.84;;;7.16;83.65
85039;BME280;75366;54.588;18.456;2024-02-23T02:44:35;97994.91;;;7.12;84.58
85039;BME280;75366;54.588;18.456;2024-02-23T02:49:36;97998.92;;;7.06;84.95
85039;BME280;75366;54.588;18.456;2024-02-23T02:54:38;98005.78;;;7.07;85.24
85039;BME280;75366;54.588;18.456;2024-02-23T02:59:40;97998.92;;;7.05;85.35
85039;BME280;75366;54.588;18.456;2024-02-23T03:04:50;97995.36;;;7.05;85.60
85039;BME280;75366;54.588;18.456;2024-02-23T03:09:52;97988.55;;;7.07;85.66
85039;BME280;75366;54.588;18.456;2024-02-23T03:14:55;97985.47;;;7.06;85.91
85039;BME280;75366;54.588;18.456;2024-02-23T03:19:57;97978.33;;;7.07;85.93
85039;BME280;75366;54.588;18.456;2024-02-23T03:24:59;97983.64;;;7.09;86.09
85039;BME280;75366;54.588;18.456;2024-02-23T03:30:01;97998.21;;;7.10;86.05
85039;BME280;75366;54.588;18.456;2024-02-23T03:35:03;98000.00;;;7.13;85.95
85039;BME280;75366;54.588;18.456;2024-02-23T03:40:06;97996.09;;;7.17;85.93
85039;BME280;75366;54.588;18.456;2024-02-23T03:45:08;98004.61;;;7.22;85.79
85039;BME280;75366;54.588;18.456;2024-02-23T03:50:09;98008.33;;;7.25;85.79
85039;BME280;75366;54.588;18.456;2024-02-23T03:55:11;98011.27;;;7.27;85.60
85039;BME280;75366;54.588;18.456;2024-02-23T04:00:21;98019.75;;;7.33;85.71
85039;BME280;75366;54.588;18.456;2024-02-23T04:05:24;98023.23;;;7.38;85.70
85039;BME280;75366;54.588;18.456;2024-02-23T04:10:26;98025.19;;;7.41;85.75
85039;BME280;75366;54.588;18.456;2024-02-23T04:15:27;98032.73;;;7.42;85.73
85039;BME280;75366;54.588;18.456;2024-02-23T04:20:29;98039.25;;;7.45;85.65
85039;BME280;75366;54.588;18.456;2024-02-23T04:25:30;98043.17;;;7.47;85.80
85039;BME280;75366;54.588;18.456;2024-02-23T04:30:33;98043.17;;;7.48;85.96
85039;BME280;75366;54.588;18.456;2024-02-23T04:35:34;98045.42;;;7.51;85.88
85039;BME280;75366;54.588;18.456;2024-02-23T04:40:36;98048.02;;;7.54;85.92
85039;BME280;75366;54.588;18.456;2024-02-23T04:45:38;98053.19;;;7.59;85.93
85039;BME280;75366;54.588;18.456;2024-02-23T04:50:39;98054.82;;;7.63;85.62
85039;BME280;75366;54.588;18.456;2024-02-23T04:55:41;98050.36;;;7.67;85.66
85039;BME280;75366;54.588;18.456;2024-02-23T05:00:43;98054.03;;;7.74;85.55
85039;BME280;75366;54.588;18.456;2024-02-23T05:05:44;98070.32;;;7.81;85.22
85039;BME280;75366;54.588;18.456;2024-02-23T05:10:47;98072.38;;;7.89;84.88
85039;BME280;75366;54.588;18.456;2024-02-23T05:15:48;98078.88;;;7.94;84.81
85039;BME280;75366;54.588;18.456;2024-02-23T05:20:50;98101.06;;;7.98;84.89
85039;BME280;75366;54.588;18.456;2024-02-23T05:25:55;98107.89;;;8.03;84.62
85039;BME280;75366;54.588;18.456;2024-02-23T05:30:57;98116.42;;;8.08;84.50
85039;BME280;75366;54.588;18.456;2024-02-23T05:35:58;98117.15;;;8.12;84.45
85039;BME280;75366;54.588;18.456;2024-02-23T05:41:00;98125.35;;;8.19;84.16
85039;BME280;75366;54.588;18.456;2024-02-23T05:46:02;98135.04;;;8.24;84.12
85039;BME280;75366;54.588;18.456;2024-02-23T05:51:04;98139.70;;;8.27;83.71
85039;BME280;75366;54.588;18.456;2024-02-23T05:56:05;98155.46;;;8.32;83.78
85039;BME280;75366;54.588;18.456;2024-02-23T06:01:07;98159.08;;;8.34;83.59
85039;BME280;75366;54.588;18.456;2024-02-23T06:06:09;98163.14;;;8.37;83.69
85039;BME280;75366;54.588;18.456;2024-02-23T06:11:11;98168.14;;;8.40;83.19
85039;BME280;75366;54.588;18.456;2024-02-23T06:16:13;98179.28;;;8.40;83.16
85039;BME280;75366;54.588;18.456;2024-02-23T06:21:15;98182.94;;;8.42;83.18
85039;BME280;75366;54.588;18.456;2024-02-23T06:26:17;98196.65;;;8.47;83.10
85039;BME280;75366;54.588;18.456;2024-02-23T06:31:19;98217.23;;;8.53;82.75
85039;BME280;75366;54.588;18.456;2024-02-23T06:36:20;98223.93;;;8.55;82.50
85039;BME280;75366;54.588;18.456;2024-02-23T06:41:22;98233.84;;;8.57;82.27
85039;BME280;75366;54.588;18.456;2024-02-23T06:46:24;98246.84;;;8.64;82.30
85039;BME280;75366;54.588;18.456;2024-02-23T06:51:26;98249.87;;;8.71;81.77
85039;BME280;75366;54.588;18.456;2024-02-23T06:56:50;98276.71;;;8.80;81.13
85039;BME280;75366;54.588;18.456;2024-02-23T07:01:52;98297.95;;;8.88;80.87
85039;BME280;75366;54.588;18.456;2024-02-23T07:07:13;98306.08;;;8.97;80.44
85039;BME280;75366;54.588;18.456;2024-02-23T07:12:35;98321.95;;;9.00;80.45
85039;BME280;75366;54.588;18.456;2024-02-23T07:17:36;98334.28;;;9.00;80.42
85039;BME280;75366;54.588;18.456;2024-02-23T07:22:38;98342.58;;;9.03;79.69
85039;BME280;75366;54.588;18.456;2024-02-23T07:27:39;98347.13;;;9.07;79.54
85039;BME280;75366;54.588;18.456;2024-02-23T07:32:41;98368.23;;;9.13;79.05
85039;BME280;75366;54.588;18.456;2024-02-23T07:37:44;98376.99;;;9.15;79.44
85039;BME280;75366;54.588;18.456;2024-02-23T07:42:45;98390.98;;;9.17;79.34
85039;BME280;75366;54.588;18.456;2024-02-23T07:47:47;98404.83;;;9.20;78.63
85039;BME280;75366;54.588;18.456;2024-02-23T07:52:49;98416.22;;;9.24;78.77
85039;BME280;75366;54.588;18.456;2024-02-23T07:57:51;98419.31;;;9.24;78.37
85039;BME280;75366;54.588;18.456;2024-02-23T08:02:52;98429.97;;;9.29;78.27
85039;BME280;75366;54.588;18.456;2024-02-23T08:07:58;98437.89;;;9.27;78.13
85039;BME280;75366;54.588;18.456;2024-02-23T08:13:00;98456.48;;;9.30;76.87
85039;BME280;75366;54.588;18.456;2024-02-23T08:18:02;98467.88;;;9.29;75.62
85039;BME280;75366;54.588;18.456;2024-02-23T08:23:04;98472.48;;;9.26;73.27
85039;BME280;75366;54.588;18.456;2024-02-23T08:28:05;98482.43;;;9.24;72.93
85039;BME280;75366;54.588;18.456;2024-02-23T08:33:07;98498.73;;;9.17;69.94
85039;BME280;75366;54.588;18.456;2024-02-23T08:38:11;98504.54;;;9.10;66.67
85039;BME280;75366;54.588;18.456;2024-02-23T08:43:13;98505.44;;;9.04;64.57
85039;BME280;75366;54.588;18.456;2024-02-23T08:48:15;98513.30;;;9.00;64.73
85039;BME280;75366;54.588;18.456;2024-02-23T08:53:16;98523.64;;;8.96;64.94
85039;BME280;75366;54.588;18.456;2024-02-23T08:58:18;98536.98;;;8.95;64.46
85039;BME280;75366;54.588;18.456;2024-02-23T09:03:20;98547.71;;;8.95;64.75
85039;BME280;75366;54.588;18.456;2024-02-23T09:08:22;98567.31;;;9.00;63.77
85039;BME280;75366;54.588;18.456;2024-02-23T09:13:24;98590.45;;;9.07;65.22
85039;BME280;75366;54.588;18.456;2024-02-23T09:18:26;98606.98;;;9.09;65.39
85039;BME280;75366;54.588;18.456;2024-02-23T09:23:28;98609.87;;;9.11;66.59
85039;BME280;75366;54.588;18.456;2024-02-23T09:28:30;98625.85;;;9.15;67.19
85039;BME280;75366;54.588;18.456;2024-02-23T09:33:33;98637.19;;;9.23;65.80
85039;BME280;75366;54.588;18.456;2024-02-23T09:38:35;98650.63;;;9.28;65.01
85039;BME280;75366;54.588;18.456;2024-02-23T09:44:01;98661.61;;;9.31;64.33
85039;BME280;75366;54.588;18.456;2024-02-23T09:49:23;98664.80;;;9.35;63.13
85039;BME280;75366;54.588;18.456;2024-02-23T09:54:25;98671.05;;;9.33;61.76
85039;BME280;75366;54.588;18.456;2024-02-23T09:59:27;98682.38;;;9.31;61.38
85039;BME280;75366;54.588;18.456;2024-02-23T10:04:32;98693.33;;;9.32;60.23
85039;BME280;75366;54.588;18.456;2024-02-23T10:09:34;98709.73;;;9.31;59.70
85039;BME280;75366;54.588;18.456;2024-02-23T10:14:36;98730.56;;;9.29;59.95
85039;BME280;75366;54.588;18.456;2024-02-23T10:19:37;98736.50;;;9.26;59.28
85039;BME280;75366;54.588;18.456;2024-02-23T10:24:42;98762.98;;;9.23;57.61
85039;BME280;75366;54.588;18.456;2024-02-23T10:29:44;98778.00;;;9.23;58.84
85039;BME280;75366;54.588;18.456;2024-02-23T10:34:47;98792.16;;;9.22;57.81
85039;BME280;75366;54.588;18.456;2024-02-23T10:39:57;98801.91;;;9.23;57.40
85039;BME280;75366;54.588;18.456;2024-02-23T10:45:01;98810.52;;;9.27;56.57
85039;BME280;75366;54.588;18.456;2024-02-23T10:50:03;98824.61;;;9.30;56.43
85039;BME280;75366;54.588;18.456;2024-02-23T10:55:08;98833.73;;;9.33;55.65
85039;BME280;75366;54.588;18.456;2024-02-23T11:00:10;98844.20;;;9.35;55.85
85039;BME280;75366;54.588;18.456;2024-02-23T11:05:14;98847.63;;;9.36;56.66
85039;BME280;75366;54.588;18.456;2024-02-23T11:10:17;98850.66;;;9.33;56.30
85039;BME280;75366;54.588;18.456;2024-02-23T11:15:27;98861.31;;;9.25;55.69
85039;BME280;75366;54.588;18.456;2024-02-23T11:20:37;98868.96;;;9.19;56.56
85039;BME280;75366;54.588;18.456;2024-02-23T11:25:38;98880.48;;;9.18;57.65
85039;BME280;75366;54.588;18.456;2024-02-23T11:30:43;98897.46;;;9.16;57.33
85039;BME280;75366;54.588;18.456;2024-02-23T11:35:48;98910.40;;;9.09;57.53
85039;BME280;75366;54.588;18.456;2024-02-23T11:40:51;98918.61;;;9.08;58.30
85039;BME280;75366;54.588;18.456;2024-02-23T11:45:53;98921.08;;;9.11;58.19
85039;BME280;75366;54.588;18.456;2024-02-23T11:50:56;98927.80;;;9.15;58.57
85039;BME280;75366;54.588;18.456;2024-02-23T11:55:58;98920.85;;;9.18;58.10
85039;BME280;75366;54.588;18.456;2024-02-23T12:01:00;98928.27;;;9.20;57.00
85039;BME280;75366;54.588;18.456;2024-02-23T12:06:04;98944.29;;;9.22;56.67
85039;BME280;75366;54.588;18.456;2024-02-23T12:11:08;98956.30;;;9.24;56.68
85039;BME280;75366;54.588;18.456;2024-02-23T12:16:11;98962.94;;;9.25;57.08
85039;BME280;75366;54.588;18.456;2024-02-23T12:21:12;98969.77;;;9.32;55.37
85039;BME280;75366;54.588;18.456;2024-02-23T12:26:18;98977.83;;;9.39;56.11
85039;BME280;75366;54.588;18.456;2024-02-23T12:31:24;98977.82;;;9.37;56.62
85039;BME280;75366;54.588;18.456;2024-02-23T12:36:28;98981.16;;;9.36;56.96
85039;BME280;75366;54.588;18.456;2024-02-23T12:41:30;98994.59;;;9.42;57.19
85039;BME280;75366;54.588;18.456;2024-02-23T12:46:32;98998.55;;;9.53;57.71
85039;BME280;75366;54.588;18.456;2024-02-23T12:51:34;99000.86;;;9.51;56.66
85039;BME280;75366;54.588;18.456;2024-02-23T12:56:35;99008.45;;;9.49;55.01
85039;BME280;75366;54.588;18.456;2024-02-23T13:01:37;99002.45;;;9.51;54.67
85039;BME280;75366;54.588;18.456;2024-02-23T13:06:43;98999.88;;;9.62;54.66
85039;BME280;75366;54.588;18.456;2024-02-23T13:11:45;99005.80;;;9.71;55.16
85039;BME280;75366;54.588;18.456;2024-02-23T13:16:48;99004.95;;;9.67;54.89
85039;BME280;75366;54.588;18.456;2024-02-23T13:21:50;99014.48;;;9.49;54.34
85039;BME280;75366;54.588;18.456;2024-02-23T13:26:51;99025.10;;;9.31;55.35
85039;BME280;75366;54.588;18.456;2024-02-23T13:31:53;99036.10;;;9.18;56.17
85039;BME280;75366;54.588;18.456;2024-02-23T13:36:55;99049.43;;;9.14;56.47
85039;BME280;75366;54.588;18.456;2024-02-23T13:41:57;99064.21;;;9.09;57.09
85039;BME280;75366;54.588;18.456;2024-02-23T13:46:59;99080.92;;;9.08;57.63
85039;BME280;75366;54.588;18.456;2024-02-23T13:52:00;99095.77;;;9.10;58.10
85039;BME280;75366;54.588;18.456;2024-02-23T13:57:02;99095.84;;;9.12;57.57
85039;BME280;75366;54.588;18.456;2024-02-23T14:02:04;99112.66;;;9.11;57.31
85039;BME280;75366;54.588;18.456;2024-02-23T14:07:07;99115.67;;;9.06;57.46
85039;BME280;75366;54.588;18.456;2024-02-23T14:12:09;99120.89;;;9.01;57.82
85039;BME280;75366;54.588;18.456;2024-02-23T14:17:11;99127.96;;;8.94;58.00
85039;BME280;75366;54.588;18.456;2024-02-23T14:22:12;99135.63;;;8.86;58.17
85039;BME280;75366;54.588;18.456;2024-02-23T14:27:14;99147.45;;;8.82;58.41
85039;BME280;75366;54.588;18.456;2024-02-23T14:32:18;99152.95;;;8.80;57.53
85039;BME280;75366;54.588;18.456;2024-02-23T14:37:20;99153.80;;;8.81;57.96
85039;BME280;75366;54.588;18.456;2024-02-23T14:42:22;99159.05;;;8.84;57.90
85039;BME280;75366;54.588;18.456;2024-02-23T14:47:24;99165.55;;;8.85;58.93
85039;BME280;75366;54.588;18.456;2024-02-23T14:52:36;99167.21;;;8.81;59.01
85039;BME280;75366;54.588;18.456;2024-02-23T14:57:38;99172.67;;;8.77;58.47
85039;BME280;75366;54.588;18.456;2024-02-23T15:02:40;99186.78;;;8.70;58.91
85039;BME280;75366;54.588;18.456;2024-02-23T15:07:42;99194.00;;;8.63;59.33
85039;BME280;75366;54.588;18.456;2024-02-23T15:12:43;99192.45;;;8.54;58.78
85039;BME280;75366;54.588;18.456;2024-02-23T15:17:45;99197.70;;;8.42;58.31
85039;BME280;75366;54.588;18.456;2024-02-23T15:22:49;99213.92;;;8.30;58.24
85039;BME280;75366;54.588;18.456;2024-02-23T15:27:51;99225.39;;;8.20;58.54
85039;BME280;75366;54.588;18.456;2024-02-23T15:32:55;99235.23;;;8.11;58.85
85039;BME280;75366;54.588;18.456;2024-02-23T15:37:56;99244.75;;;8.02;58.76
85039;BME280;75366;54.588;18.456;2024-02-23T15:42:58;99253.14;;;7.93;58.93
85039;BME280;75366;54.588;18.456;2024-02-23T15:48:04;99259.05;;;7.86;58.95
85039;BME280;75366;54.588;18.456;2024-02-23T15:53:06;99263.71;;;7.79;59.80
85039;BME280;75366;54.588;18.456;2024-02-23T15:58:08;99267.20;;;7.66;60.22
85039;BME280;75366;54.588;18.456;2024-02-23T16:03:10;99271.70;;;7.55;60.72
85039;BME280;75366;54.588;18.456;2024-02-23T16:08:12;99280.20;;;7.40;61.46
85039;BME280;75366;54.588;18.456;2024-02-23T16:13:17;99300.78;;;7.21;61.88
85039;BME280;75366;54.588;18.456;2024-02-23T16:18:19;99307.98;;;6.99;62.04
85039;BME280;75366;54.588;18.456;2024-02-23T16:23:20;99318.84;;;6.80;62.62
85039;BME280;75366;54.588;18.456;2024-02-23T16:28:22;99329.98;;;6.70;63.04
85039;BME280;75366;54.588;18.456;2024-02-23T16:33:24;99343.45;;;6.70;63.47
85039;BME280;75366;54.588;18.456;2024-02-23T16:38:26;99347.92;;;6.71;63.69
85039;BME280;75366;54.588;18.456;2024-02-23T16:43:27;99357.95;;;6.69;63.84
85039;BME280;75366;54.588;18.456;2024-02-23T16:48:30;99366.83;;;6.66;64.44
85039;BME280;75366;54.588;18.456;2024-02-23T16:53:32;99369.64;;;6.55;65.52
85039;BME280;75366;54.588;18.456;2024-02-23T16:58:34;99377.25;;;6.43;66.07
85039;BME280;75366;54.588;18.456;2024-02-23T17:03:39;99373.10;;;6.40;65.97
85039;BME280;75366;54.588;18.456;2024-02-23T17:08:41;99369.65;;;6.41;65.71
85039;BME280;75366;54.588;18.456;2024-02-23T17:13:43;99381.52;;;6.41;65.29
85039;BME280;75366;54.588;18.456;2024-02-23T17:18:45;99388.55;;;6.41;65.11
85039;BME280;75366;54.588;18.456;2024-02-23T17:23:47;99394.52;;;6.39;64.96
85039;BME280;75366;54.588;18.456;2024-02-23T17:28:49;99400.69;;;6.34;64.90
85039;BME280;75366;54.588;18.456;2024-02-23T17:33:53;99408.64;;;6.25;65.02
85039;BME280;75366;54.588;18.456;2024-02-23T17:38:55;99416.89;;;6.19;65.05
85039;BME280;75366;54.588;18.456;2024-02-23T17:43:57;99413.09;;;6.18;64.97
85039;BME280;75366;54.588;18.456;2024-02-23T17:48:58;99414.67;;;6.20;65.07
85039;BME280;75366;54.588;18.456;2024-02-23T17:54:00;99413.25;;;6.24;64.79
85039;BME280;75366;54.588;18.456;2024-02-23T17:59:02;99419.10;;;6.26;64.84
85039;BME280;75366;54.588;18.456;2024-02-23T18:04:04;99418.11;;;6.27;64.69
85039;BME280;75366;54.588;18.456;2024-02-23T18:09:06;99408.73;;;6.30;64.47
85039;BME280;75366;54.588;18.456;2024-02-23T18:14:08;99396.14;;;6.32;64.26
85039;BME280;75366;54.588;18.456;2024-02-23T18:19:10;99387.48;;;6.32;64.15
85039;BME280;75366;54.588;18.456;2024-02-23T18:24:11;99384.31;;;6.23;64.34
85039;BME280;75366;54.588;18.456;2024-02-23T18:29:13;99374.32;;;6.11;64.40
85039;BME280;75366;54.588;18.456;2024-02-23T18:34:14;99375.81;;;6.00;64.92
85039;BME280;75366;54.588;18.456;2024-02-23T18:39:17;99390.75;;;5.90;64.95
85039;BME280;75366;54.588;18.456;2024-02-23T18:44:18;99396.21;;;5.95;64.89
85039;BME280;75366;54.588;18.456;2024-02-23T18:49:20;99411.97;;;5.93;65.39
85039;BME280;75366;54.588;18.456;2024-02-23T18:54:22;99422.08;;;5.85;65.31
85039;BME280;75366;54.588;18.456;2024-02-23T18:59:24;99435.98;;;5.74;65.59
85039;BME280;75366;54.588;18.456;2024-02-23T19:04:26;99427.83;;;5.66;65.92
85039;BME280;75366;54.588;18.456;2024-02-23T19:09:37;99440.48;;;5.57;66.04
85039;BME280;75366;54.588;18.456;2024-02-23T19:14:39;99447.81;;;5.54;66.24
85039;BME280;75366;54.588;18.456;2024-02-23T19:19:41;99449.16;;;5.57;66.07
85039;BME280;75366;54.588;18.456;2024-02-23T19:24:43;99456.33;;;5.58;66.12
85039;BME280;75366;54.588;18.456;2024-02-23T19:29:45;99454.55;;;5.59;66.42
85039;BME280;75366;54.588;18.456;2024-02-23T19:34:47;99463.43;;;5.60;66.91
85039;BME280;75366;54.588;18.456;2024-02-23T19:39:48;99462.39;;;5.47;67.77
85039;BME280;75366;54.588;18.456;2024-02-23T19:44:50;99458.44;;;5.30;68.38
85039;BME280;75366;54.588;18.456;2024-02-23T19:49:52;99458.13;;;5.21;69.22
85039;BME280;75366;54.588;18.456;2024-02-23T19:54:55;99460.45;;;5.15;69.50
85039;BME280;75366;54.588;18.456;2024-02-23T19:59:57;99461.02;;;5.02;70.31
85039;BME280;75366;54.588;18.456;2024-02-23T20:05:00;99462.27;;;4.92;70.90
85039;BME280;75366;54.588;18.456;2024-02-23T20:10:02;99455.13;;;4.85;71.31
85039;BME280;75366;54.588;18.456;2024-02-23T20:15:05;99456.68;;;4.77;71.95
85039;BME280;75366;54.588;18.456;2024-02-23T20:20:07;99462.45;;;4.70;72.20
85039;BME280;75366;54.588;18.456;2024-02-23T20:25:09;99461.29;;;4.71;72.54
85039;BME280;75366;54.588;18.456;2024-02-23T20:30:11;99460.39;;;4.73;73.10
85039;BME280;75366;54.588;18.456;2024-02-23T20:35:14;99463.39;;;4.74;73.18
85039;BME280;75366;54.588;18.456;2024-02-23T20:40:16;99468.10;;;4.76;73.34
85039;BME280;75366;54.588;18.456;2024-02-23T20:45:17;99466.08;;;4.74;73.09
85039;BME280;75366;54.588;18.456;2024-02-23T20:50:20;99465.95;;;4.75;72.61
85039;BME280;75366;54.588;18.456;2024-02-23T20:55:21;99478.47;;;4.81;72.03
85039;BME280;75366;54.588;18.456;2024-02-23T21:00:23;99492.07;;;4.88;71.57
85039;BME280;75366;54.588;18.456;2024-02-23T21:05:25;99496.41;;;4.93;71.73
85039;BME280;75366;54.588;18.456;2024-02-23T21:10:26;99496.14;;;5.00;71.64
85039;BME280;75366;54.588;18.456;2024-02-23T21:15:28;99500.41;;;5.10;71.52
85039;BME280;75366;54.588;18.456;2024-02-23T21:20:29;99501.01;;;5.16;71.59
85039;BME280;75366;54.588;18.456;2024-02-23T21:25:31;99499.70;;;5.21;71.31
85039;BME280;75366;54.588;18.456;2024-02-23T21:30:32;99499.79;;;5.25;71.24
85039;BME280;75366;54.588;18.456;2024-02-23T21:35:34;99492.32;;;5.30;71.13
85039;BME280;75366;54.588;18.456;2024-02-23T21:40:36;99498.79;;;5.32;70.96
85039;BME280;75366;54.588;18.456;2024-02-23T21:45:38;99509.36;;;5.32;71.03
85039;BME280;75366;54.588;18.456;2024-02-23T21:50:40;99503.51;;;5.30;71.01
85039;BME280;75366;54.588;18.456;2024-02-23T21:55:42;99508.30;;;5.30;70.48
85039;BME280;75366;54.588;18.456;2024-02-23T22:00:43;99504.28;;;5.31;70.56
85039;BME280;75366;54.588;18.456;2024-02-23T22:05:45;99503.70;;;5.33;70.17
85039;BME280;75366;54.588;18.456;2024-02-23T22:10:47;99504.71;;;5.34;69.98
85039;BME280;75366;54.588;18.456;2024-02-23T22:15:48;99505.62;;;5.31;69.69
85039;BME280;75366;54.588;18.456;2024-02-23T22:20:50;99495.77;;;5.28;69.75
85039;BME280;75366;54.588;18.456;2024-02-23T22:25:52;99501.59;;;5.25;69.79
85039;BME280;75366;54.588;18.456;2024-02-23T22:30:54;99497.79;;;5.23;69.62
85039;BME280;75366;54.588;18.456;2024-02-23T22:35:55;99501.31;;;5.27;69.46
85039;BME280;75366;54.588;18.456;2024-02-23T22:40:57;99506.08;;;5.31;69.09
85039;BME280;75366;54.588;18.456;2024-02-23T22:45:58;99504.52;;;5.33;68.72
85039;BME280;75366;54.588;18.456;2024-02-23T22:51:02;99496.63;;;5.39;68.30
85039;BME280;75366;54.588;18.456;2024-02-23T22:56:04;99499.48;;;5.44;68.25
85039;BME280;75366;54.588;18.456;2024-02-23T23:01:06;99495.54;;;5.46;68.17
85039;BME280;75366;54.588;18.456;2024-02-23T23:06:08;99498.79;;;5.47;67.97
85039;BME280;75366;54.588;18.456;2024-02-23T23:11:14;99493.17;;;5.48;68.15
85039;BME280;75366;54.588;18.456;2024-02-23T23:16:15;99499.86;;;5.51;68.35
85039;BME280;75366;54.588;18.456;2024-02-23T23:21:17;99504.46;;;5.54;68.36
85039;BME280;75366;54.588;18.456;2024-02-23T23:26:19;99506.56;;;5.56;68.45
85039;BME280;75366;54.588;18.456;2024-02-23T23:31:21;99502.85;;;5.56;68.40
85039;BME280;75366;54.588;18.456;2024-02-23T23:36:24;99507.45;;;5.54;68.37
85039;BME280;75366;54.588;18.456;2024-02-23T23:41:25;99509.44;;;5.52;68.36
85039;BME280;75366;54.588;18.456;2024-02-23T23:46:27;99511.98;;;5.49;68.48
85039;BME280;75366;54.588;18.456;2024-02-23T23:51:29;99519.00;;;5.47;68.84
85039;BME280;75366;54.588;18.456;2024-02-23T23:56:31;99507.06;;;5.46;68.67
